sensor_id;sensor_type;location;lat;lon;timestamp;pressure;altitude;pressure_sealevel;temperature;humidity
31911;BME280;18457;52.432;16.914;2023-04-06T00:02:14;101130.52;;;2.31;68.10
31911;BME280;18457;52.432;16.914;2023-04-06T00:04:46;101128.17;;;2.30;68.79
31911;BME280;18457;52.432;16.914;2023-04-06T00:07:18;101128.20;;;2.40;68.30
31911;BME280;18457;52.432;16.914;2023-04-06T00:09:50;101127.23;;;2.36;68.42
31911;BME280;18457;52.432;16.914;2023-04-06T00:12:21;101132.08;;;2.38;68.41
31911;BME280;18457;52.432;16.914;2023-04-06T00:14:53;101130.89;;;2.49;67.47
31911;BME280;18457;52.432;16.914;2023-04-06T00:17:25;101130.73;;;2.51;67.71
31911;BME280;18457;52.432;16.914;2023-04-06T00:19:57;101128.80;;;2.43;67.96
31911;BME280;18457;52.432;16.914;2023-04-06T00:22:29;101130.13;;;2.39;68.08
31911;BME280;18457;52.432;16.914;2023-04-06T00:25:01;101126.05;;;2.31;68.33
31911;BME280;18457;52.432;16.914;2023-04-06T00:27:33;101121.66;;;2.26;68.65
31911;BME280;18457;52.432;16.914;2023-04-06T00:30:07;101122.30;;;2.30;68.03
31911;BME280;18457;52.432;16.914;2023-04-06T00:32:39;101122.30;;;2.39;68.55
31911;BME280;18457;52.432;16.914;2023-04-06T00:35:11;101120.59;;;2.34;68.40
31911;BME280;18457;52.432;16.914;2023-04-06T00:37:45;101118.40;;;2.23;69.16
31911;BME280;18457;52.432;16.914;2023-04-06T00:40:17;101119.63;;;2.22;69.29
31911;BME280;18457;52.432;16.914;2023-04-06T00:42:50;101117.23;;;2.18;69.44
31911;BME280;18457;52.432;16.914;2023-04-06T00:45:22;101115.42;;;2.17;69.22
31911;BME280;18457;52.432;16.914;2023-04-06T00:47:54;101115.08;;;2.17;69.49
31911;BME280;18457;52.432;16.914;2023-04-06T00:50:26;101113.66;;;2.10;69.44
31911;BME280;18457;52.432;16.914;2023-04-06T00:52:59;101113.66;;;2.10;70.13
31911;BME280;18457;52.432;16.914;2023-04-06T00:55:31;101113.67;;;2.10;69.27
31911;BME280;18457;52.432;16.914;2023-04-06T00:58:03;101115.89;;;2.14;68.82
31911;BME280;18457;52.432;16.914;2023-04-06T01:00:41;101121.00;;;2.11;69.18
31911;BME280;18457;52.432;16.914;2023-04-06T01:03:13;101116.11;;;2.08;68.64
31911;BME280;18457;52.432;16.914;2023-04-06T01:05:46;101115.23;;;2.00;68.54
31911;BME280;18457;52.432;16.914;2023-04-06T01:08:23;101114.34;;;2.00;68.90
31911;BME280;18457;52.432;16.914;2023-04-06T01:11:00;101114.86;;;1.91;69.25
31911;BME280;18457;52.432;16.914;2023-04-06T01:13:33;101113.42;;;1.91;69.36
31911;BME280;18457;52.432;16.914;2023-04-06T01:16:08;101112.61;;;1.95;69.14
31911;BME280;18457;52.432;16.914;2023-04-06T01:18:58;101111.66;;;1.84;68.97
31911;BME280;18457;52.432;16.914;2023-04-06T01:21:33;101116.26;;;1.90;69.26
31911;BME280;18457;52.432;16.914;2023-04-06T01:24:28;101118.90;;;1.89;69.33
31911;BME280;18457;52.432;16.914;2023-04-06T01:27:09;101119.61;;;1.89;69.62
31911;BME280;18457;52.432;16.914;2023-04-06T01:30:20;101116.54;;;1.87;69.41
31911;BME280;18457;52.432;16.914;2023-04-06T01:33:02;101120.42;;;1.78;69.68
31911;BME280;18457;52.432;16.914;2023-04-06T01:35:57;101117.38;;;1.77;69.95
31911;BME280;18457;52.432;16.914;2023-04-06T01:38:30;101116.27;;;1.75;70.87
31911;BME280;18457;52.432;16.914;2023-04-06T01:41:02;101121.11;;;1.76;70.86
31911;BME280;18457;52.432;16.914;2023-04-06T01:43:37;101121.43;;;1.75;70.76
31911;BME280;18457;52.432;16.914;2023-04-06T01:46:12;101117.98;;;1.72;71.17
31911;BME280;18457;52.432;16.914;2023-04-06T01:48:45;101110.86;;;1.80;71.35
31911;BME280;18457;52.432;16.914;2023-04-06T01:51:24;101113.64;;;1.77;71.14
31911;BME280;18457;52.432;16.914;2023-04-06T01:54:02;101116.52;;;1.70;71.19
31911;BME280;18457;52.432;16.914;2023-04-06T01:56:54;101114.89;;;1.69;70.84
31911;BME280;18457;52.432;16.914;2023-04-06T01:59:35;101116.39;;;1.66;71.15
31911;BME280;18457;52.432;16.914;2023-04-06T02:02:11;101116.42;;;1.66;71.13
31911;BME280;18457;52.432;16.914;2023-04-06T02:04:46;101113.71;;;1.57;71.57
31911;BME280;18457;52.432;16.914;2023-04-06T02:07:17;101116.26;;;1.52;71.53
31911;BME280;18457;52.432;16.914;2023-04-06T02:09:50;101118.71;;;1.50;72.03
31911;BME280;18457;52.432;16.914;2023-04-06T02:12:26;101114.58;;;1.48;72.18
31911;BME280;18457;52.432;16.914;2023-04-06T02:14:58;101108.98;;;1.46;72.58
31911;BME280;18457;52.432;16.914;2023-04-06T02:17:30;101106.51;;;1.54;72.59
31911;BME280;18457;52.432;16.914;2023-04-06T02:20:02;101107.88;;;1.51;71.98
31911;BME280;18457;52.432;16.914;2023-04-06T02:22:34;101109.68;;;1.45;72.19
31911;BME280;18457;52.432;16.914;2023-04-06T02:25:07;101108.25;;;1.44;71.88
31911;BME280;18457;52.432;16.914;2023-04-06T02:27:40;101107.58;;;1.46;71.78
31911;BME280;18457;52.432;16.914;2023-04-06T02:30:12;101110.23;;;1.53;71.30
31911;BME280;18457;52.432;16.914;2023-04-06T02:32:45;101105.98;;;1.53;70.76
31911;BME280;18457;52.432;16.914;2023-04-06T02:35:17;101108.95;;;1.66;69.96
31911;BME280;18457;52.432;16.914;2023-04-06T02:37:50;101109.09;;;1.72;70.25
31911;BME280;18457;52.432;16.914;2023-04-06T02:40:22;101109.44;;;1.72;70.01
31911;BME280;18457;52.432;16.914;2023-04-06T02:42:54;101112.29;;;1.72;70.68
31911;BME280;18457;52.432;16.914;2023-04-06T02:45:30;101113.08;;;1.60;70.96
31911;BME280;18457;52.432;16.914;2023-04-06T02:48:03;101112.67;;;1.58;70.60
31911;BME280;18457;52.432;16.914;2023-04-06T02:50:35;101113.24;;;1.67;70.39
31911;BME280;18457;52.432;16.914;2023-04-06T02:53:09;101115.70;;;1.74;69.55
31911;BME280;18457;52.432;16.914;2023-04-06T02:55:41;101118.35;;;1.72;69.38
31911;BME280;18457;52.432;16.914;2023-04-06T02:58:13;101119.31;;;1.75;69.32
31911;BME280;18457;52.432;16.914;2023-04-06T03:00:51;101118.49;;;1.71;69.35
31911;BME280;18457;52.432;16.914;2023-04-06T03:03:23;101121.89;;;1.71;69.54
31911;BME280;18457;52.432;16.914;2023-04-06T03:05:55;101125.54;;;1.68;69.99
31911;BME280;18457;52.432;16.914;2023-04-06T03:08:30;101128.79;;;1.69;69.95
31911;BME280;18457;52.432;16.914;2023-04-06T03:11:02;101126.84;;;1.70;70.06
31911;BME280;18457;52.432;16.914;2023-04-06T03:13:38;101126.81;;;1.69;69.73
31911;BME280;18457;52.432;16.914;2023-04-06T03:16:10;101129.16;;;1.70;70.10
31911;BME280;18457;52.432;16.914;2023-04-06T03:18:41;101130.02;;;1.70;70.01
31911;BME280;18457;52.432;16.914;2023-04-06T03:21:15;101127.30;;;1.67;70.09
31911;BME280;18457;52.432;16.914;2023-04-06T03:23:51;101130.63;;;1.65;70.19
31911;BME280;18457;52.432;16.914;2023-04-06T03:26:23;101132.80;;;1.59;70.55
31911;BME280;18457;52.432;16.914;2023-04-06T03:28:55;101134.79;;;1.52;70.96
31911;BME280;18457;52.432;16.914;2023-04-06T03:31:30;101135.73;;;1.47;71.14
31911;BME280;18457;52.432;16.914;2023-04-06T03:34:08;101135.77;;;1.49;70.69
31911;BME280;18457;52.432;16.914;2023-04-06T03:36:40;101136.96;;;1.54;70.31
31911;BME280;18457;52.432;16.914;2023-04-06T03:39:12;101133.64;;;1.56;69.92
31911;BME280;18457;52.432;16.914;2023-04-06T03:41:45;101137.19;;;1.64;69.81
31911;BME280;18457;52.432;16.914;2023-04-06T03:44:37;101141.28;;;1.56;70.71
31911;BME280;18457;52.432;16.914;2023-04-06T03:47:09;101141.84;;;1.49;71.05
31911;BME280;18457;52.432;16.914;2023-04-06T03:49:41;101140.89;;;1.54;70.42
31911;BME280;18457;52.432;16.914;2023-04-06T03:52:14;101145.65;;;1.45;71.01
31911;BME280;18457;52.432;16.914;2023-04-06T03:54:47;101147.52;;;1.42;71.53
31911;BME280;18457;52.432;16.914;2023-04-06T03:57:19;101146.09;;;1.41;71.80
31911;BME280;18457;52.432;16.914;2023-04-06T03:59:50;101149.94;;;1.38;71.89
31911;BME280;18457;52.432;16.914;2023-04-06T04:02:22;101152.33;;;1.35;71.41
31911;BME280;18457;52.432;16.914;2023-04-06T04:04:55;101153.80;;;1.37;71.94
31911;BME280;18457;52.432;16.914;2023-04-06T04:07:26;101151.54;;;1.32;72.32
31911;BME280;18457;52.432;16.914;2023-04-06T04:09:58;101154.45;;;1.34;72.38
31911;BME280;18457;52.432;16.914;2023-04-06T04:12:30;101153.98;;;1.30;72.61
31911;BME280;18457;52.432;16.914;2023-04-06T04:15:02;101152.98;;;1.25;72.82
31911;BME280;18457;52.432;16.914;2023-04-06T04:17:35;101146.48;;;1.29;72.77
31911;BME280;18457;52.432;16.914;2023-04-06T04:20:09;101146.70;;;1.30;72.85
31911;BME280;18457;52.432;16.914;2023-04-06T04:22:42;101147.67;;;1.34;72.59
31911;BME280;18457;52.432;16.914;2023-04-06T04:25:14;101148.92;;;1.34;73.06
31911;BME280;18457;52.432;16.914;2023-04-06T04:27:50;101149.44;;;1.40;72.55
31911;BME280;18457;52.432;16.914;2023-04-06T04:30:23;101155.48;;;1.46;71.49
31911;BME280;18457;52.432;16.914;2023-04-06T04:32:54;101156.48;;;1.37;72.38
31911;BME280;18457;52.432;16.914;2023-04-06T04:35:28;101154.31;;;1.29;72.80
31911;BME280;18457;52.432;16.914;2023-04-06T04:38:00;101155.77;;;1.23;73.07
31911;BME280;18457;52.432;16.914;2023-04-06T04:40:32;101152.92;;;1.16;72.80
31911;BME280;18457;52.432;16.914;2023-04-06T04:43:11;101162.11;;;1.20;72.76
31911;BME280;18457;52.432;16.914;2023-04-06T04:45:42;101161.05;;;1.21;72.07
31911;BME280;18457;52.432;16.914;2023-04-06T04:48:21;101158.68;;;1.26;71.33
31911;BME280;18457;52.432;16.914;2023-04-06T04:50:56;101162.97;;;1.26;72.11
31911;BME280;18457;52.432;16.914;2023-04-06T04:53:31;101161.14;;;1.18;73.17
31911;BME280;18457;52.432;16.914;2023-04-06T04:56:07;101164.20;;;1.18;73.06
31911;BME280;18457;52.432;16.914;2023-04-06T04:58:39;101158.56;;;1.28;73.05
31911;BME280;18457;52.432;16.914;2023-04-06T05:01:11;101160.74;;;1.37;72.78
31911;BME280;18457;52.432;16.914;2023-04-06T05:03:42;101161.34;;;1.46;72.48
31911;BME280;18457;52.432;16.914;2023-04-06T05:06:16;101167.75;;;1.46;72.31
31911;BME280;18457;52.432;16.914;2023-04-06T05:08:50;101167.81;;;1.42;72.19
31911;BME280;18457;52.432;16.914;2023-04-06T05:11:23;101166.27;;;1.37;72.53
31911;BME280;18457;52.432;16.914;2023-04-06T05:14:00;101168.14;;;1.33;72.83
31911;BME280;18457;52.432;16.914;2023-04-06T05:16:30;101168.67;;;1.34;73.23
31911;BME280;18457;52.432;16.914;2023-04-06T05:19:02;101167.86;;;1.36;73.14
31911;BME280;18457;52.432;16.914;2023-04-06T05:21:41;101169.00;;;1.39;72.62
31911;BME280;18457;52.432;16.914;2023-04-06T05:24:13;101172.70;;;1.52;72.20
31911;BME280;18457;52.432;16.914;2023-04-06T05:26:46;101170.73;;;1.66;71.98
31911;BME280;18457;52.432;16.914;2023-04-06T05:29:23;101174.61;;;1.65;72.51
31911;BME280;18457;52.432;16.914;2023-04-06T05:31:55;101176.59;;;1.58;72.03
31911;BME280;18457;52.432;16.914;2023-04-06T05:34:28;101181.15;;;1.55;71.54
31911;BME280;18457;52.432;16.914;2023-04-06T05:37:01;101185.30;;;1.65;70.73
31911;BME280;18457;52.432;16.914;2023-04-06T05:39:33;101186.77;;;1.81;69.20
31911;BME280;18457;52.432;16.914;2023-04-06T05:42:07;101183.14;;;1.94;68.95
31911;BME280;18457;52.432;16.914;2023-04-06T05:44:50;101179.73;;;2.00;68.68
31911;BME280;18457;52.432;16.914;2023-04-06T05:47:23;101182.72;;;2.07;68.45
31911;BME280;18457;52.432;16.914;2023-04-06T05:50:01;101184.70;;;2.07;67.99
31911;BME280;18457;52.432;16.914;2023-04-06T05:52:39;101184.23;;;2.11;68.02
31911;BME280;18457;52.432;16.914;2023-04-06T05:55:14;101179.78;;;2.18;67.28
31911;BME280;18457;52.432;16.914;2023-04-06T05:57:47;101174.46;;;2.28;66.63
31911;BME280;18457;52.432;16.914;2023-04-06T06:00:21;101170.85;;;2.33;66.43
31911;BME280;18457;52.432;16.914;2023-04-06T06:02:57;101172.44;;;2.41;66.13
31911;BME280;18457;52.432;16.914;2023-04-06T06:05:31;101174.74;;;2.49;65.82
31911;BME280;18457;52.432;16.914;2023-04-06T06:08:08;101176.48;;;2.55;65.45
31911;BME280;18457;52.432;16.914;2023-04-06T06:10:41;101173.88;;;2.59;65.83
31911;BME280;18457;52.432;16.914;2023-04-06T06:13:14;101174.21;;;2.66;65.42
31911;BME280;18457;52.432;16.914;2023-04-06T06:15:47;101176.16;;;2.75;64.97
31911;BME280;18457;52.432;16.914;2023-04-06T06:18:19;101175.19;;;2.80;65.11
31911;BME280;18457;52.432;16.914;2023-04-06T06:20:55;101175.40;;;2.81;65.06
31911;BME280;18457;52.432;16.914;2023-04-06T06:23:27;101174.48;;;2.80;65.68
31911;BME280;18457;52.432;16.914;2023-04-06T06:25:59;101176.11;;;2.81;66.76
31911;BME280;18457;52.432;16.914;2023-04-06T06:28:30;101174.52;;;2.90;65.99
31911;BME280;18457;52.432;16.914;2023-04-06T06:31:02;101171.98;;;2.98;64.86
31911;BME280;18457;52.432;16.914;2023-04-06T06:33:34;101170.14;;;3.04;64.49
31911;BME280;18457;52.432;16.914;2023-04-06T06:36:08;101172.37;;;3.10;63.96
31911;BME280;18457;52.432;16.914;2023-04-06T06:38:43;101177.77;;;3.13;63.97
31911;BME280;18457;52.432;16.914;2023-04-06T06:41:15;101181.60;;;3.17;63.66
31911;BME280;18457;52.432;16.914;2023-04-06T06:43:48;101181.31;;;3.19;63.88
31911;BME280;18457;52.432;16.914;2023-04-06T06:46:21;101187.48;;;3.25;63.76
31911;BME280;18457;52.432;16.914;2023-04-06T06:48:52;101185.60;;;3.30;63.47
31911;BME280;18457;52.432;16.914;2023-04-06T06:51:24;101180.38;;;3.37;63.22
31911;BME280;18457;52.432;16.914;2023-04-06T06:53:56;101183.43;;;3.38;64.24
31911;BME280;18457;52.432;16.914;2023-04-06T06:56:27;101184.80;;;3.45;63.41
31911;BME280;18457;52.432;16.914;2023-04-06T06:58:59;101184.55;;;3.52;62.66
31911;BME280;18457;52.432;16.914;2023-04-06T07:01:32;101187.37;;;3.60;61.72
31911;BME280;18457;52.432;16.914;2023-04-06T07:04:05;101187.17;;;3.69;61.10
31911;BME280;18457;52.432;16.914;2023-04-06T07:06:38;101184.24;;;3.76;60.33
31911;BME280;18457;52.432;16.914;2023-04-06T07:09:11;101184.55;;;3.85;60.26
31911;BME280;18457;52.432;16.914;2023-04-06T07:11:43;101181.82;;;3.93;60.31
31911;BME280;18457;52.432;16.914;2023-04-06T07:14:15;101184.73;;;3.96;60.17
31911;BME280;18457;52.432;16.914;2023-04-06T07:16:48;101186.18;;;3.97;60.21
31911;BME280;18457;52.432;16.914;2023-04-06T07:19:23;101182.01;;;4.04;58.48
31911;BME280;18457;52.432;16.914;2023-04-06T07:21:55;101178.67;;;4.09;57.78
31911;BME280;18457;52.432;16.914;2023-04-06T07:24:27;101178.59;;;4.16;58.33
31911;BME280;18457;52.432;16.914;2023-04-06T07:27:00;101177.07;;;4.22;58.16
31911;BME280;18457;52.432;16.914;2023-04-06T07:29:32;101175.19;;;4.28;57.61
31911;BME280;18457;52.432;16.914;2023-04-06T07:32:05;101177.29;;;4.38;56.71
31911;BME280;18457;52.432;16.914;2023-04-06T07:34:37;101178.98;;;4.43;55.75
31911;BME280;18457;52.432;16.914;2023-04-06T07:37:09;101178.44;;;4.43;55.86
31911;BME280;18457;52.432;16.914;2023-04-06T07:39:41;101178.64;;;4.45;56.73
31911;BME280;18457;52.432;16.914;2023-04-06T07:42:12;101177.98;;;4.51;55.91
31911;BME280;18457;52.432;16.914;2023-04-06T07:44:45;101178.00;;;4.51;54.77
31911;BME280;18457;52.432;16.914;2023-04-06T07:47:18;101176.83;;;4.57;54.74
31911;BME280;18457;52.432;16.914;2023-04-06T07:49:50;101176.36;;;4.63;54.30
31911;BME280;18457;52.432;16.914;2023-04-06T07:52:22;101181.27;;;4.70;53.82
31911;BME280;18457;52.432;16.914;2023-04-06T07:54:54;101181.32;;;4.73;53.51
31911;BME280;18457;52.432;16.914;2023-04-06T07:57:26;101175.45;;;4.77;53.04
31911;BME280;18457;52.432;16.914;2023-04-06T07:59:58;101178.21;;;4.83;52.79
31911;BME280;18457;52.432;16.914;2023-04-06T08:05:01;101177.89;;;4.86;52.04
31911;BME280;18457;52.432;16.914;2023-04-06T08:07:33;101182.05;;;4.89;52.39
31911;BME280;18457;52.432;16.914;2023-04-06T08:10:06;101184.42;;;4.94;52.98
31911;BME280;18457;52.432;16.914;2023-04-06T08:12:39;101185.88;;;4.96;52.28
31911;BME280;18457;52.432;16.914;2023-04-06T08:15:35;101180.05;;;5.02;51.43
31911;BME280;18457;52.432;16.914;2023-04-06T08:18:31;101178.70;;;5.10;51.14
31911;BME280;18457;52.432;16.914;2023-04-06T08:21:57;101174.65;;;5.17;51.20
31911;BME280;18457;52.432;16.914;2023-04-06T08:25:43;101176.45;;;5.19;51.51
31911;BME280;18457;52.432;16.914;2023-04-06T08:28:15;101172.99;;;5.13;51.58
31911;BME280;18457;52.432;16.914;2023-04-06T08:30:50;101171.58;;;5.15;51.85
31911;BME280;18457;52.432;16.914;2023-04-06T08:33:23;101167.37;;;5.24;51.71
31911;BME280;18457;52.432;16.914;2023-04-06T08:35:57;101168.68;;;5.29;52.23
31911;BME280;18457;52.432;16.914;2023-04-06T08:38:29;101168.23;;;5.38;51.19
31911;BME280;18457;52.432;16.914;2023-04-06T08:41:01;101165.60;;;5.46;50.70
31911;BME280;18457;52.432;16.914;2023-04-06T08:43:43;101163.02;;;5.37;50.57
31911;BME280;18457;52.432;16.914;2023-04-06T08:46:17;101165.17;;;5.38;50.71
31911;BME280;18457;52.432;16.914;2023-04-06T08:48:49;101166.89;;;5.50;51.30
31911;BME280;18457;52.432;16.914;2023-04-06T08:51:21;101164.11;;;5.58;51.08
31911;BME280;18457;52.432;16.914;2023-04-06T08:53:55;101163.05;;;5.61;50.73
31911;BME280;18457;52.432;16.914;2023-04-06T08:56:28;101161.30;;;5.68;50.30
31911;BME280;18457;52.432;16.914;2023-04-06T08:59:04;101162.77;;;5.73;50.59
31911;BME280;18457;52.432;16.914;2023-04-06T09:01:40;101160.79;;;5.71;50.03
31911;BME280;18457;52.432;16.914;2023-04-06T09:04:14;101152.84;;;5.82;50.14
31911;BME280;18457;52.432;16.914;2023-04-06T09:06:47;101151.69;;;5.94;50.20
31911;BME280;18457;52.432;16.914;2023-04-06T09:09:19;101155.67;;;6.01;49.61
31911;BME280;18457;52.432;16.914;2023-04-06T09:11:54;101157.85;;;6.05;49.02
31911;BME280;18457;52.432;16.914;2023-04-06T09:14:37;101156.05;;;6.04;48.43
31911;BME280;18457;52.432;16.914;2023-04-06T09:17:19;101154.11;;;6.10;47.98
31911;BME280;18457;52.432;16.914;2023-04-06T09:19:52;101156.86;;;6.18;47.43
31911;BME280;18457;52.432;16.914;2023-04-06T09:22:24;101151.66;;;6.19;47.14
31911;BME280;18457;52.432;16.914;2023-04-06T09:24:57;101148.11;;;6.29;47.55
31911;BME280;18457;52.432;16.914;2023-04-06T09:27:34;101150.12;;;6.33;47.32
31911;BME280;18457;52.432;16.914;2023-04-06T09:30:08;101150.11;;;6.31;46.93
31911;BME280;18457;52.432;16.914;2023-04-06T09:32:49;101149.78;;;6.37;47.19
31911;BME280;18457;52.432;16.914;2023-04-06T09:35:22;101150.91;;;6.47;46.60
31911;BME280;18457;52.432;16.914;2023-04-06T09:37:56;101148.08;;;6.58;46.76
31911;BME280;18457;52.432;16.914;2023-04-06T09:40:29;101144.53;;;6.72;46.53
31911;BME280;18457;52.432;16.914;2023-04-06T09:43:01;101148.67;;;6.76;46.41
31911;BME280;18457;52.432;16.914;2023-04-06T09:45:37;101142.09;;;6.92;46.21
31911;BME280;18457;52.432;16.914;2023-04-06T09:48:09;101141.77;;;7.04;45.53
31911;BME280;18457;52.432;16.914;2023-04-06T09:50:41;101141.77;;;7.10;44.31
31911;BME280;18457;52.432;16.914;2023-04-06T09:53:14;101133.16;;;7.16;44.69
31911;BME280;18457;52.432;16.914;2023-04-06T09:55:49;101137.13;;;7.32;45.09
31911;BME280;18457;52.432;16.914;2023-04-06T09:58:23;101140.91;;;7.49;44.30
31911;BME280;18457;52.432;16.914;2023-04-06T10:01:01;101137.85;;;7.57;44.41
31911;BME280;18457;52.432;16.914;2023-04-06T10:03:40;101136.96;;;7.61;43.70
31911;BME280;18457;52.432;16.914;2023-04-06T10:06:21;101134.41;;;7.84;44.35
31911;BME280;18457;52.432;16.914;2023-04-06T10:08:54;101128.27;;;8.01;44.05
31911;BME280;18457;52.432;16.914;2023-04-06T10:11:29;101130.25;;;8.02;43.79
31911;BME280;18457;52.432;16.914;2023-04-06T10:14:02;101123.59;;;8.01;43.00
31911;BME280;18457;52.432;16.914;2023-04-06T10:16:34;101121.24;;;8.07;42.83
31911;BME280;18457;52.432;16.914;2023-04-06T10:19:12;101114.39;;;8.22;43.95
31911;BME280;18457;52.432;16.914;2023-04-06T10:21:46;101114.54;;;8.32;42.83
31911;BME280;18457;52.432;16.914;2023-04-06T10:24:21;101119.89;;;8.46;42.73
31911;BME280;18457;52.432;16.914;2023-04-06T10:27:01;101121.39;;;8.29;41.21
31911;BME280;18457;52.432;16.914;2023-04-06T10:29:44;101118.84;;;8.41;41.55
31911;BME280;18457;52.432;16.914;2023-04-06T10:32:17;101110.88;;;8.50;41.41
31911;BME280;18457;52.432;16.914;2023-04-06T10:34:49;101110.94;;;8.73;41.16
31911;BME280;18457;52.432;16.914;2023-04-06T10:37:21;101113.72;;;8.92;41.84
31911;BME280;18457;52.432;16.914;2023-04-06T10:39:55;101112.91;;;9.06;41.43
31911;BME280;18457;52.432;16.914;2023-04-06T10:42:38;101112.77;;;8.98;40.40
31911;BME280;18457;52.432;16.914;2023-04-06T10:45:20;101112.10;;;8.92;39.46
31911;BME280;18457;52.432;16.914;2023-04-06T10:47:53;101102.02;;;8.90;39.11
31911;BME280;18457;52.432;16.914;2023-04-06T10:50:26;101098.90;;;8.97;39.90
31911;BME280;18457;52.432;16.914;2023-04-06T10:53:02;101101.88;;;9.11;40.65
31911;BME280;18457;52.432;16.914;2023-04-06T10:55:35;101099.70;;;9.38;40.90
31911;BME280;18457;52.432;16.914;2023-04-06T10:58:11;101096.85;;;9.53;39.54
31911;BME280;18457;52.432;16.914;2023-04-06T11:00:46;101094.74;;;9.68;39.68
31911;BME280;18457;52.432;16.914;2023-04-06T11:03:21;101098.02;;;9.65;39.66
31911;BME280;18457;52.432;16.914;2023-04-06T11:05:54;101094.38;;;9.70;40.04
31911;BME280;18457;52.432;16.914;2023-04-06T11:08:31;101096.98;;;9.80;39.94
31911;BME280;18457;52.432;16.914;2023-04-06T11:11:07;101094.92;;;9.86;39.98
31911;BME280;18457;52.432;16.914;2023-04-06T11:13:45;101085.25;;;9.97;39.65
31911;BME280;18457;52.432;16.914;2023-04-06T11:16:19;101095.34;;;9.99;39.41
31911;BME280;18457;52.432;16.914;2023-04-06T11:18:53;101091.76;;;9.96;39.44
31911;BME280;18457;52.432;16.914;2023-04-06T11:21:36;101081.92;;;10.05;40.21
31911;BME280;18457;52.432;16.914;2023-04-06T11:24:11;101074.41;;;10.18;39.34
31911;BME280;18457;52.432;16.914;2023-04-06T11:26:46;101075.99;;;10.35;38.90
31911;BME280;18457;52.432;16.914;2023-04-06T11:29:21;101070.29;;;10.43;38.80
31911;BME280;18457;52.432;16.914;2023-04-06T11:31:58;101072.91;;;10.50;38.73
31911;BME280;18457;52.432;16.914;2023-04-06T11:34:32;101072.09;;;10.43;38.58
31911;BME280;18457;52.432;16.914;2023-04-06T11:37:09;101069.70;;;10.32;38.29
31911;BME280;18457;52.432;16.914;2023-04-06T11:39:46;101067.71;;;10.33;38.96
31911;BME280;18457;52.432;16.914;2023-04-06T11:42:26;101065.27;;;10.40;38.65
31911;BME280;18457;52.432;16.914;2023-04-06T11:44:59;101063.53;;;10.48;38.67
31911;BME280;18457;52.432;16.914;2023-04-06T11:47:34;101056.55;;;10.58;38.49
31911;BME280;18457;52.432;16.914;2023-04-06T11:50:09;101057.90;;;10.64;38.50
31911;BME280;18457;52.432;16.914;2023-04-06T11:52:42;101051.00;;;10.80;39.08
31911;BME280;18457;52.432;16.914;2023-04-06T11:55:14;101047.02;;;10.81;38.68
31911;BME280;18457;52.432;16.914;2023-04-06T11:57:47;101048.46;;;10.80;38.42
31911;BME280;18457;52.432;16.914;2023-04-06T12:00:22;101045.55;;;10.81;38.65
31911;BME280;18457;52.432;16.914;2023-04-06T12:02:52;101043.38;;;10.81;38.54
31911;BME280;18457;52.432;16.914;2023-04-06T12:05:25;101042.16;;;11.01;38.92
31911;BME280;18457;52.432;16.914;2023-04-06T12:07:57;101041.61;;;10.78;38.20
31911;BME280;18457;52.432;16.914;2023-04-06T12:10:33;101034.39;;;10.78;38.21
31911;BME280;18457;52.432;16.914;2023-04-06T12:13:05;101033.47;;;10.91;39.06
31911;BME280;18457;52.432;16.914;2023-04-06T12:15:37;101030.05;;;11.13;39.01
31911;BME280;18457;52.432;16.914;2023-04-06T12:18:09;101026.39;;;11.15;39.12
31911;BME280;18457;52.432;16.914;2023-04-06T12:20:41;101023.96;;;11.09;38.33
31911;BME280;18457;52.432;16.914;2023-04-06T12:23:12;101024.14;;;10.98;38.00
31911;BME280;18457;52.432;16.914;2023-04-06T12:25:44;101020.48;;;11.11;37.96
31911;BME280;18457;52.432;16.914;2023-04-06T12:28:17;101022.33;;;11.20;37.66
31911;BME280;18457;52.432;16.914;2023-04-06T12:30:52;101016.53;;;11.10;37.85
31911;BME280;18457;52.432;16.914;2023-04-06T12:33:24;101017.86;;;11.17;38.14
31911;BME280;18457;52.432;16.914;2023-04-06T12:35:56;101019.41;;;11.22;37.94
31911;BME280;18457;52.432;16.914;2023-04-06T12:38:28;101009.41;;;11.14;37.72
31911;BME280;18457;52.432;16.914;2023-04-06T12:41:00;101013.19;;;11.04;37.30
31911;BME280;18457;52.432;16.914;2023-04-06T12:43:32;101011.45;;;11.01;37.69
31911;BME280;18457;52.432;16.914;2023-04-06T12:46:05;101011.57;;;10.70;37.77
31911;BME280;18457;52.432;16.914;2023-04-06T12:48:37;101002.67;;;10.60;38.44
31911;BME280;18457;52.432;16.914;2023-04-06T12:51:09;101002.24;;;10.77;38.68
31911;BME280;18457;52.432;16.914;2023-04-06T12:53:41;101000.34;;;10.83;39.09
31911;BME280;18457;52.432;16.914;2023-04-06T12:56:15;100996.00;;;10.83;38.92
31911;BME280;18457;52.432;16.914;2023-04-06T12:58:48;100994.08;;;10.79;37.79
31911;BME280;18457;52.432;16.914;2023-04-06T13:01:20;100986.63;;;10.93;38.11
31911;BME280;18457;52.432;16.914;2023-04-06T13:03:53;100984.67;;;11.12;38.73
31911;BME280;18457;52.432;16.914;2023-04-06T13:06:24;100988.54;;;11.29;39.15
31911;BME280;18457;52.432;16.914;2023-04-06T13:08:58;100980.89;;;10.90;38.01
31911;BME280;18457;52.432;16.914;2023-04-06T13:11:30;100981.54;;;10.83;38.71
31911;BME280;18457;52.432;16.914;2023-04-06T13:14:02;100981.76;;;10.70;38.77
31911;BME280;18457;52.432;16.914;2023-04-06T13:16:34;100975.49;;;10.78;38.81
31911;BME280;18457;52.432;16.914;2023-04-06T13:19:07;100976.41;;;10.77;38.67
31911;BME280;18457;52.432;16.914;2023-04-06T13:21:40;100975.26;;;10.69;37.89
31911;BME280;18457;52.432;16.914;2023-04-06T13:24:12;100969.55;;;10.86;38.01
31911;BME280;18457;52.432;16.914;2023-04-06T13:26:46;100967.95;;;10.97;38.10
31911;BME280;18457;52.432;16.914;2023-04-06T13:29:18;100963.69;;;11.02;37.63